createdAt,value
2018-02-04T00:03:57.121Z,1004.74
2018-02-04T00:08:56.678Z,1004.79
2018-02-04T00:13:51.337Z,1004.91
2018-02-04T00:18:48.231Z,1004.93
2018-02-04T00:23:49.682Z,1004.98
2018-02-04T00:28:44.007Z,1005.03
2018-02-04T00:33:44.536Z,1005.08
2018-02-04T00:38:44.181Z,1005.15
2018-02-04T00:43:42.814Z,1005.23
2018-02-04T00:48:37.842Z,1005.27
2018-02-04T00:53:38.975Z,1005.34
2018-02-04T00:58:38.300Z,1005.42
2018-02-04T01:03:33.138Z,1005.54
2018-02-04T01:08:28.751Z,1005.60
2018-02-04T01:13:29.751Z,1005.65
2018-02-04T01:18:28.392Z,1005.75
2018-02-04T01:23:23.014Z,1005.85
2018-02-04T01:28:22.682Z,1005.86
2018-02-04T01:33:17.401Z,1005.92
2018-02-04T01:38:17.205Z,1006.05
2018-02-04T01:43:11.620Z,1005.98
2018-02-04T01:48:07.180Z,1006.02
2018-02-04T01:53:03.896Z,1006.08
2018-02-04T01:58:04.557Z,1006.10
2018-02-04T02:02:58.976Z,1006.11
2018-02-04T02:07:54.564Z,1006.17
2018-02-04T02:12:50.980Z,1006.20
2018-02-04T02:17:46.946Z,1006.17
2018-02-04T02:22:46.762Z,1006.27
2018-02-04T02:27:46.428Z,1006.27
2018-02-04T02:32:46.966Z,1006.26
2018-02-04T02:37:43.366Z,1006.40
2018-02-04T02:42:39.352Z,1006.37
2018-02-04T02:47:34.882Z,1006.49
2018-02-04T02:52:34.449Z,1006.61
2018-02-04T02:57:33.216Z,1006.76
2018-02-04T03:02:32.004Z,1006.73
2018-02-04T03:07:28.651Z,1006.75
2018-02-04T03:12:25.271Z,1006.88
2018-02-04T03:17:21.614Z,1006.83
2018-02-04T03:22:17.044Z,1007.11
2018-02-04T03:27:17.614Z,1007.11
2018-02-04T03:32:16.913Z,1007.12
2018-02-04T03:37:16.411Z,1007.26
2018-02-04T03:42:15.016Z,1007.39
2018-02-04T03:47:09.728Z,1007.45
2018-02-04T03:52:09.293Z,1007.58
2018-02-04T03:57:07.941Z,1007.55
2018-02-04T04:02:07.805Z,1007.62
2018-02-04T04:07:06.339Z,1007.70
2018-02-04T04:12:01.109Z,1007.67
2018-02-04T04:17:00.746Z,1007.85
2018-02-04T04:21:55.576Z,1007.90
2018-02-04T04:26:51.286Z,1007.87
2018-02-04T04:31:46.818Z,1008.10
2018-02-04T04:36:42.623Z,1008.06
2018-02-04T04:41:42.280Z,1008.17
2018-02-04T04:46:38.497Z,1008.05
2018-02-04T04:51:38.684Z,1008.20
2018-02-04T04:56:34.487Z,1008.35
2018-02-04T05:01:29.876Z,1008.43
2018-02-04T05:06:25.684Z,1008.36
2018-02-04T05:11:25.133Z,1008.26
2018-02-04T05:16:19.947Z,1008.38
2018-02-04T05:21:20.263Z,1008.46
2018-02-04T05:26:15.000Z,1008.49
2018-02-04T05:31:14.929Z,1008.52
2018-02-04T05:36:11.470Z,1008.51
2018-02-04T05:41:10.136Z,1008.63
2018-02-04T05:46:05.927Z,1008.68
2018-02-04T05:51:02.190Z,1008.82
2018-02-04T05:56:02.430Z,1008.89
2018-02-04T06:00:58.186Z,1008.94
2018-02-04T06:05:53.538Z,1009.01
2018-02-04T06:10:50.008Z,1009.10
2018-02-04T06:15:49.253Z,1008.97
2018-02-04T06:20:47.804Z,1009.09
2018-02-04T06:25:47.071Z,1009.06
2018-02-04T06:30:45.582Z,1009.20
2018-02-04T06:35:41.411Z,1009.21
2018-02-04T06:40:36.795Z,1009.28
2018-02-04T06:45:32.450Z,1009.31
2018-02-04T06:50:32.158Z,1009.38
2018-02-04T06:55:31.220Z,1009.48
2018-02-04T07:00:30.004Z,1009.62
2018-02-04T07:05:29.804Z,1009.75
2018-02-04T07:10:24.339Z,1009.69
2018-02-04T07:15:24.005Z,1009.84
2018-02-04T07:20:22.765Z,1009.91
2018-02-04T07:25:17.431Z,1009.93
2018-02-04T07:30:13.383Z,1010.01
2018-02-04T07:35:13.985Z,1010.11
2018-02-04T07:40:08.762Z,1010.23
2018-02-04T07:45:08.775Z,1010.30
2018-02-04T07:50:03.844Z,1010.45
2018-02-04T07:55:03.496Z,1010.46
2018-02-04T07:59:59.387Z,1010.52
2018-02-04T08:04:58.542Z,1010.62
2018-02-04T08:09:58.332Z,1010.81
2018-02-04T08:14:58.830Z,1010.85
2018-02-04T08:19:53.098Z,1010.97
2018-02-04T08:24:49.157Z,1011.02
2018-02-04T08:29:44.953Z,1011.12
2018-02-04T08:34:44.387Z,1011.16
2018-02-04T08:39:40.484Z,1011.25
2018-02-04T08:44:35.870Z,1011.36
2018-02-04T08:49:32.681Z,1011.44
2018-02-04T08:54:28.135Z,1011.41
2018-02-04T08:59:27.913Z,1011.50
2018-02-04T09:04:22.705Z,1011.68
2018-02-04T09:09:23.462Z,1011.71
2018-02-04T09:14:19.211Z,1011.84
2018-02-04T09:19:14.692Z,1011.91
2018-02-04T09:24:15.351Z,1012.06
2018-02-04T09:29:09.888Z,1012.05
2018-02-04T09:34:10.607Z,1012.13
2018-02-04T09:39:05.311Z,1012.33
2018-02-04T09:44:01.017Z,1012.40
2018-02-04T09:48:56.615Z,1012.50
2018-02-04T09:53:52.517Z,1012.59
2018-02-04T09:58:53.319Z,1012.70
2018-02-04T10:03:52.824Z,1012.84
2018-02-04T10:08:47.449Z,1012.98
2018-02-04T10:13:43.347Z,1012.87
2018-02-04T10:18:43.003Z,1013.05
2018-02-04T10:23:42.108Z,1013.15
2018-02-04T10:28:40.926Z,1013.23
2018-02-04T10:33:41.034Z,1013.27
2018-02-04T10:38:41.444Z,1013.34
2018-02-04T10:43:40.860Z,1013.34
2018-02-04T10:48:36.722Z,1013.39
2018-02-04T10:53:35.781Z,1013.52
2018-02-04T10:58:30.168Z,1013.54
2018-02-04T11:03:25.577Z,1013.70
2018-02-04T11:08:21.829Z,1013.82
2018-02-04T11:13:21.694Z,1013.79
2018-02-04T11:18:20.640Z,1013.89
2018-02-04T11:23:15.163Z,1013.91
2018-02-04T11:28:11.395Z,1013.97
2018-02-04T11:33:11.445Z,1014.08
2018-02-04T11:38:05.951Z,1014.10
2018-02-04T11:43:01.481Z,1014.24
2018-02-04T11:48:00.784Z,1014.40
2018-02-04T11:52:56.448Z,1014.47
2018-02-04T11:57:53.046Z,1014.43
2018-02-04T12:02:52.105Z,1014.45
2018-02-04T12:07:47.151Z,1014.52
2018-02-04T12:12:42.840Z,1014.49
2018-02-04T12:17:38.332Z,1014.52
2018-02-04T12:22:34.573Z,1014.51
2018-02-04T12:27:31.899Z,1014.58
2018-02-04T12:32:28.289Z,1014.47
2018-02-04T12:37:28.561Z,1014.62
2018-02-04T12:42:27.704Z,1014.70
2018-02-04T12:47:26.399Z,1014.75
2018-02-04T12:52:26.338Z,1014.76
2018-02-04T12:57:24.991Z,1014.69
2018-02-04T13:02:24.872Z,1014.75
2018-02-04T13:07:24.415Z,1014.83
2018-02-04T13:12:20.099Z,1014.84
2018-02-04T13:17:15.339Z,1014.88
2018-02-04T13:22:10.974Z,1014.82
2018-02-04T13:27:07.595Z,1014.90
2018-02-04T13:32:06.852Z,1014.92
2018-02-04T13:37:01.986Z,1014.86
2018-02-04T13:41:57.632Z,1014.94
2018-02-04T13:46:53.852Z,1014.91
2018-02-04T13:51:54.260Z,1015.04
2018-02-04T13:56:52.806Z,1015.12
2018-02-04T14:01:48.576Z,1015.09
2018-02-04T14:06:48.065Z,1015.21
2018-02-04T14:11:46.510Z,1015.14
2018-02-04T14:16:45.260Z,1015.19
2018-02-04T14:21:40.996Z,1015.16
2018-02-04T14:26:40.250Z,1015.36
2018-02-04T14:31:39.066Z,1015.39
2018-02-04T14:36:38.027Z,1015.48
2018-02-04T14:41:36.841Z,1015.50
2018-02-04T14:46:32.836Z,1015.51
2018-02-04T14:51:33.564Z,1015.59
2018-02-04T14:56:31.653Z,1015.63
2018-02-04T15:01:30.305Z,1015.63
2018-02-04T15:06:25.857Z,1015.72
2018-02-04T15:11:26.462Z,1015.74
2018-02-04T15:16:21.049Z,1015.91
2018-02-04T15:21:20.552Z,1015.98
2018-02-04T15:26:20.255Z,1016.09
2018-02-04T15:31:20.115Z,1016.08
2018-02-04T15:36:19.415Z,1016.18
2018-02-04T15:41:18.043Z,1016.28
2018-02-04T15:46:16.480Z,1016.21
2018-02-04T15:51:15.586Z,1016.40
2018-02-04T15:56:14.190Z,1016.45
2018-02-04T16:01:13.815Z,1016.44
2018-02-04T16:06:08.184Z,1016.50
2018-02-04T16:11:04.535Z,1016.60
2018-02-04T16:16:04.330Z,1016.71
2018-02-04T16:21:02.981Z,1016.70
2018-02-04T16:26:01.793Z,1016.74
2018-02-04T16:30:56.647Z,1016.77
2018-02-04T16:35:53.212Z,1016.61
2018-02-04T16:40:52.607Z,1016.68
2018-02-04T16:45:47.510Z,1016.71
2018-02-04T16:50:48.508Z,1016.78
2018-02-04T16:55:47.160Z,1016.78
2018-02-04T17:00:46.977Z,1016.80
2018-02-04T17:05:46.531Z,1016.87
2018-02-04T17:10:46.499Z,1016.92
2018-02-04T17:15:46.604Z,1016.98
2018-02-04T17:20:45.233Z,1017.01
2018-02-04T17:25:43.453Z,1017.10
2018-02-04T17:30:42.096Z,1017.18
2018-02-04T17:35:41.908Z,1017.16
2018-02-04T17:40:40.743Z,1017.32
2018-02-04T17:45:40.318Z,1017.29
2018-02-04T17:50:40.143Z,1017.38
2018-02-04T17:55:40.638Z,1017.39
2018-02-04T18:00:40.194Z,1017.42
2018-02-04T18:05:38.442Z,1017.48
2018-02-04T18:10:38.270Z,1017.59
2018-02-04T18:15:34.955Z,1017.54
2018-02-04T18:20:30.642Z,1017.71
2018-02-04T18:25:32.708Z,1017.83
2018-02-04T18:30:31.942Z,1017.87
2018-02-04T18:35:33.057Z,1017.81
2018-02-04T18:40:32.813Z,1017.89
2018-02-04T18:45:31.543Z,1018.02
2018-02-04T18:50:30.224Z,1018.05
2018-02-04T18:55:29.410Z,1018.16
2018-02-04T19:00:29.315Z,1018.13
2018-02-04T19:05:24.711Z,1018.32
2018-02-04T19:10:25.210Z,1018.39
2018-02-04T19:15:23.843Z,1018.36
2018-02-04T19:20:23.443Z,1018.30
2018-02-04T19:25:18.603Z,1018.36
2018-02-04T19:30:14.674Z,1018.40
2018-02-04T19:35:14.586Z,1018.37
2018-02-04T19:40:09.401Z,1018.50
2018-02-04T19:45:09.957Z,1018.53
2018-02-04T19:50:08.458Z,1018.51
2018-02-04T19:55:06.846Z,1018.57
2018-02-04T20:00:01.637Z,1018.67
2018-02-04T20:04:58.179Z,1018.62
2018-02-04T20:09:57.479Z,1018.73
2018-02-04T20:14:53.295Z,1018.74
2018-02-04T20:19:53.557Z,1018.75
2018-02-04T20:24:53.919Z,1018.87
2018-02-04T20:29:49.292Z,1018.81
2018-02-04T20:34:45.663Z,1018.83
2018-02-04T20:39:46.019Z,1018.90
2018-02-04T20:44:41.396Z,1018.85
2018-02-04T20:49:40.597Z,1018.88
2018-02-04T20:54:40.198Z,1019.02
2018-02-04T20:59:38.264Z,1018.90
2018-02-04T21:04:32.912Z,1019.07
2018-02-04T21:09:32.415Z,1019.11
2018-02-04T21:14:32.074Z,1019.16
2018-02-04T21:19:30.526Z,1019.15
2018-02-04T21:24:29.317Z,1019.20
2018-02-04T21:29:25.119Z,1019.32
2018-02-04T21:34:24.582Z,1019.37
2018-02-04T21:39:23.459Z,1019.37
2018-02-04T21:44:22.012Z,1019.47
2018-02-04T21:49:20.540Z,1019.50
2018-02-04T21:54:21.183Z,1019.64
2018-02-04T21:59:20.443Z,1019.53
2018-02-04T22:04:19.572Z,1019.66
2018-02-04T22:09:18.299Z,1019.70
2018-02-04T22:14:14.145Z,1019.62
2018-02-04T22:19:13.564Z,1019.73
2018-02-04T22:24:12.045Z,1019.75
2018-02-04T22:29:11.680Z,1019.71
2018-02-04T22:34:07.211Z,1019.75
2018-02-04T22:39:02.152Z,1019.70
2018-02-04T22:44:02.815Z,1019.74
2018-02-04T22:49:02.519Z,1019.81
2018-02-04T22:53:57.382Z,1019.84
2018-02-04T22:58:53.213Z,1019.84
2018-02-04T23:03:49.365Z,1019.84
2018-02-04T23:08:49.188Z,1019.83
2018-02-04T23:13:47.993Z,1019.85
2018-02-04T23:18:47.059Z,1019.78
2018-02-04T23:23:45.819Z,1019.79
2018-02-04T23:28:44.795Z,1019.89
2018-02-04T23:33:39.705Z,1019.89
2018-02-04T23:38:35.870Z,1019.86
2018-02-04T23:43:33.806Z,1019.91
2018-02-04T23:48:34.115Z,1019.93
2018-02-04T23:53:35.076Z,1020.03
2018-02-04T23:58:30.451Z,1019.98
